Time;durP1;ratioP1;P1;durP2;ratioP2;P2;SDS_P1;SDS_P2;PMS_P1;PMS_P2;Temp;Humidity;BMP_temperature;BMP_pressure;BME280_temperature;BME280_humidity;BME280_pressure;Samples;Min_cycle;Max_cycle;Signal;HPM_P1;HPM_P2
2022/11/24 00:01:08;;;;;;;10.55;5.30;;;6.90;99.90;;;;;;5043364;28;20532;-70
2022/11/24 00:03:35;;;;;;;10.90;5.80;;;6.80;99.90;;;;;;5044381;28;20515;-70
2022/11/24 00:06:04;;;;;;;9.85;5.20;;;6.80;99.90;;;;;;5047300;28;20508;-71
2022/11/24 00:08:31;;;;;;;14.52;5.75;;;6.80;99.90;;;;;;5047713;28;20447;-70
2022/11/24 00:11:05;;;;;;;13.27;5.65;;;6.70;99.90;;;;;;5042973;28;20516;-71
2022/11/24 00:13:33;;;;;;;12.97;5.40;;;6.70;99.90;;;;;;5041841;28;20544;-71
2022/11/24 00:16:08;;;;;;;12.30;5.40;;;6.60;99.90;;;;;;5043836;28;20514;-70
2022/11/24 00:18:35;;;;;;;11.40;5.67;;;6.60;99.90;;;;;;5045851;28;20545;-70
2022/11/24 00:21:02;;;;;;;10.15;5.13;;;6.60;99.90;;;;;;5042731;28;20469;-70
2022/11/24 00:23:29;;;;;;;12.03;4.90;;;6.60;99.90;;;;;;5046738;28;21046;-70
2022/11/24 00:25:56;;;;;;;11.40;5.00;;;6.60;99.90;;;;;;5046637;28;20520;-70
2022/11/24 00:28:24;;;;;;;11.40;4.80;;;6.60;99.90;;;;;;5044453;28;20445;-70
2022/11/24 00:30:51;;;;;;;11.23;4.60;;;6.60;99.90;;;;;;5045332;28;20437;-70
2022/11/24 00:33:17;;;;;;;11.13;5.00;;;6.60;99.90;;;;;;5045634;28;20531;-70
2022/11/24 00:35:44;;;;;;;12.43;4.53;;;6.70;99.90;;;;;;5043469;28;20512;-70
2022/11/24 00:38:11;;;;;;;7.90;4.45;;;6.70;99.90;;;;;;5045086;28;20433;-69
2022/11/24 00:40:38;;;;;;;11.30;4.78;;;6.70;99.90;;;;;;5040989;28;20530;-70
2022/11/24 00:43:05;;;;;;;13.70;5.60;;;6.70;99.90;;;;;;5041730;28;20523;-70
2022/11/24 00:45:33;;;;;;;12.68;5.20;;;6.70;99.90;;;;;;5048243;28;20508;-70
2022/11/24 00:48:00;;;;;;;11.20;5.10;;;6.80;99.90;;;;;;5049075;28;20523;-69
2022/11/24 00:50:27;;;;;;;9.98;5.25;;;6.70;99.90;;;;;;5047834;28;20504;-70
2022/11/24 00:52:53;;;;;;;12.98;5.20;;;6.70;99.90;;;;;;5046010;28;20519;-70
2022/11/24 00:55:20;;;;;;;8.52;3.97;;;6.80;99.90;;;;;;5047083;28;20945;-70
2022/11/24 00:57:47;;;;;;;11.23;4.60;;;6.90;99.90;;;;;;5045317;28;20531;-71
2022/11/24 01:00:15;;;;;;;9.80;3.95;;;7.00;99.90;;;;;;5041339;28;20425;-71
2022/11/24 01:02:43;;;;;;;10.93;4.03;;;7.10;99.90;;;;;;5045396;28;20433;-70
2022/11/24 01:05:10;;;;;;;9.63;4.65;;;7.30;99.90;;;;;;5038590;28;20468;-70
2022/11/24 01:07:37;;;;;;;10.43;3.97;;;7.40;99.90;;;;;;5046464;28;20457;-70
2022/11/24 01:10:05;;;;;;;9.25;3.78;;;7.40;99.90;;;;;;5045136;28;20459;-70
2022/11/24 01:12:32;;;;;;;9.95;3.80;;;7.40;99.90;;;;;;5037568;28;20434;-70
2022/11/24 01:14:59;;;;;;;11.77;4.07;;;7.50;99.90;;;;;;5047033;28;20569;-70
2022/11/24 01:17:26;;;;;;;9.25;3.20;;;7.50;99.70;;;;;;5043650;28;20462;-70
2022/11/24 01:19:54;;;;;;;11.07;4.00;;;7.60;99.50;;;;;;5046202;28;20800;-70
2022/11/24 01:22:21;;;;;;;11.15;4.45;;;7.60;99.30;;;;;;5039829;28;20439;-70
2022/11/24 01:24:48;;;;;;;7.38;3.60;;;7.50;99.10;;;;;;5041877;28;20432;-70
2022/11/24 01:27:15;;;;;;;9.48;4.60;;;7.60;99.00;;;;;;5039841;28;20585;-69
2022/11/24 01:29:42;;;;;;;10.25;3.90;;;7.70;98.80;;;;;;5041978;28;20431;-70
2022/11/24 01:32:09;;;;;;;9.00;3.53;;;7.70;99.00;;;;;;5040257;28;20434;-70
2022/11/24 01:34:35;;;;;;;8.43;3.55;;;7.80;98.40;;;;;;5044734;28;20428;-69
2022/11/24 01:37:04;;;;;;;11.43;4.07;;;7.80;98.20;;;;;;5044621;28;20425;-70
2022/11/24 01:39:30;;;;;;;13.45;4.10;;;7.80;98.10;;;;;;5046409;28;20430;-70
2022/11/24 01:42:00;;;;;;;8.32;3.30;;;7.90;97.70;;;;;;5039734;28;20435;-70
2022/11/24 01:44:29;;;;;;;9.83;3.60;;;7.90;97.60;;;;;;5043135;28;20456;-70
2022/11/24 01:46:58;;;;;;;9.98;4.10;;;7.90;97.40;;;;;;5042217;28;20519;-70
2022/11/24 01:49:29;;;;;;;8.82;3.40;;;7.90;97.80;;;;;;5043071;28;20516;-70
2022/11/24 01:52:01;;;;;;;9.27;3.70;;;7.90;97.30;;;;;;5037623;28;20432;-71
2022/11/24 01:54:33;;;;;;;8.48;3.60;;;7.90;97.30;;;;;;5042728;28;20840;-71
2022/11/24 01:57:05;;;;;;;8.00;3.03;;;7.80;97.20;;;;;;5042201;28;21172;-70
2022/11/24 01:59:33;;;;;;;8.13;3.45;;;7.90;97.10;;;;;;5044989;28;21002;-70
2022/11/24 02:02:00;;;;;;;9.05;3.35;;;7.90;96.90;;;;;;5043578;28;20960;-69
2022/11/24 02:04:32;;;;;;;7.60;3.80;;;7.90;96.90;;;;;;5043901;28;20465;-70
2022/11/24 02:07:01;;;;;;;9.55;3.75;;;7.80;97.10;;;;;;5046648;28;20513;-70
2022/11/24 02:09:34;;;;;;;9.70;4.40;;;7.70;97.20;;;;;;5044272;28;20536;-68
2022/11/24 02:12:03;;;;;;;10.10;4.40;;;7.70;97.30;;;;;;5066424;22;20528;-77
2022/11/24 02:14:30;;;;;;;10.93;4.75;;;7.70;97.60;;;;;;5044606;28;20425;-77
2022/11/24 02:16:57;;;;;;;9.02;4.68;;;7.70;97.50;;;;;;5040562;28;20477;-76
2022/11/24 02:19:33;;;;;;;12.25;5.38;;;7.70;97.50;;;;;;5043319;28;20447;-76
2022/11/24 02:22:01;;;;;;;14.32;4.60;;;7.70;97.60;;;;;;5050243;28;20575;-76
2022/11/24 02:24:37;;;;;;;10.57;5.10;;;7.70;97.70;;;;;;5042038;28;20536;-77
2022/11/24 02:27:05;;;;;;;8.45;3.90;;;7.70;97.70;;;;;;5044995;28;20537;-76
2022/11/24 02:29:32;;;;;;;10.63;4.40;;;7.80;97.70;;;;;;5042658;28;20512;-76
2022/11/24 02:32:04;;;;;;;11.93;3.80;;;7.80;97.60;;;;;;5047126;28;20542;-76
2022/11/24 02:34:31;;;;;;;9.63;4.10;;;7.90;97.50;;;;;;5040086;28;20908;-77
2022/11/24 02:36:58;;;;;;;10.05;3.88;;;7.90;97.40;;;;;;5043992;28;20992;-76
2022/11/24 02:39:25;;;;;;;9.95;3.40;;;7.90;97.20;;;;;;5039437;28;20495;-77
2022/11/24 02:41:54;;;;;;;9.80;3.40;;;7.90;97.20;;;;;;5047063;28;20432;-77
2022/11/24 02:44:26;;;;;;;11.90;4.20;;;7.90;97.10;;;;;;5039794;28;20429;-77
2022/11/24 02:47:02;;;;;;;10.27;3.53;;;8.00;96.70;;;;;;5040357;28;20512;-76
2022/11/24 02:49:29;;;;;;;9.25;3.33;;;7.90;96.60;;;;;;5041810;28;20433;-77
2022/11/24 02:51:56;;;;;;;9.18;3.35;;;7.90;96.70;;;;;;5045042;28;20449;-76
2022/11/24 02:54:23;;;;;;;10.80;3.60;;;7.90;96.60;;;;;;5041278;28;20435;-77
2022/11/24 02:56:50;;;;;;;8.50;3.30;;;7.90;96.60;;;;;;5043396;28;20545;-76
2022/11/24 02:59:17;;;;;;;8.38;3.20;;;7.90;96.60;;;;;;5044866;28;20477;-77
2022/11/24 03:01:46;;;;;;;11.50;3.70;;;7.90;96.60;;;;;;5045164;28;20512;-76
2022/11/24 03:04:13;;;;;;;8.52;3.03;;;7.90;96.70;;;;;;5041349;28;21960;-77
2022/11/24 03:06:42;;;;;;;12.20;3.78;;;7.80;96.80;;;;;;5047095;28;20494;-76
2022/11/24 03:09:10;;;;;;;8.38;3.50;;;7.70;97.00;;;;;;5045812;28;20529;-76
2022/11/24 03:11:37;;;;;;;6.65;3.10;;;7.60;97.30;;;;;;5043263;28;20457;-77
2022/11/24 03:14:04;;;;;;;11.23;3.50;;;7.50;97.70;;;;;;5044957;28;20676;-76
2022/11/24 03:16:31;;;;;;;8.02;3.83;;;7.40;97.90;;;;;;5045565;28;20516;-76
2022/11/24 03:18:59;;;;;;;8.85;3.45;;;7.30;98.60;;;;;;5050844;28;20527;-76
2022/11/24 03:21:26;;;;;;;10.10;3.67;;;7.20;98.40;;;;;;5042132;28;20520;-77
2022/11/24 03:23:53;;;;;;;9.30;3.20;;;7.20;98.60;;;;;;5041633;28;20743;-81
2022/11/24 03:26:22;;;;;;;8.98;3.15;;;7.20;98.90;;;;;;5063024;28;20437;-77
2022/11/24 03:28:52;;;;;;;9.07;3.20;;;7.20;99.00;;;;;;5066607;28;20416;-77
2022/11/24 03:31:19;;;;;;;9.82;3.80;;;7.20;99.20;;;;;;5058859;28;20470;-76
2022/11/24 03:33:46;;;;;;;8.93;3.92;;;7.10;99.40;;;;;;5043908;28;20552;-76
2022/11/24 03:36:15;;;;;;;13.45;4.63;;;7.10;99.50;;;;;;5043673;28;20515;-76
2022/11/24 03:38:42;;;;;;;10.00;3.80;;;7.20;99.80;;;;;;5044270;28;20432;-77
2022/11/24 03:41:09;;;;;;;10.67;4.30;;;7.20;99.80;;;;;;5043839;28;20602;-76
2022/11/24 03:43:36;;;;;;;11.07;3.67;;;7.20;99.80;;;;;;5043456;28;20517;-76
2022/11/24 03:46:03;;;;;;;8.00;3.60;;;7.30;99.90;;;;;;5044311;28;20466;-77
2022/11/24 03:48:30;;;;;;;10.63;3.67;;;7.30;99.50;;;;;;5047632;28;20455;-76
2022/11/24 03:50:58;;;;;;;9.88;4.10;;;7.30;99.40;;;;;;5041859;28;20520;-77
2022/11/24 03:53:29;;;;;;;11.75;3.83;;;7.30;99.20;;;;;;5044723;28;20846;-77
2022/11/24 03:55:56;;;;;;;9.50;3.60;;;7.40;99.20;;;;;;5041876;28;20513;-77
2022/11/24 03:58:23;;;;;;;10.82;3.90;;;7.40;99.10;;;;;;5046964;28;20960;-77
2022/11/24 04:00:51;;;;;;;10.98;4.38;;;7.40;99.20;;;;;;5047997;28;20520;-76
2022/11/24 04:03:19;;;;;;;9.15;3.80;;;7.40;99.30;;;;;;5045533;28;20468;-76
2022/11/24 04:05:46;;;;;;;10.00;4.07;;;7.40;99.30;;;;;;5045414;28;20456;-76
2022/11/24 04:08:13;;;;;;;10.20;4.20;;;7.40;99.30;;;;;;5038171;28;20531;-77
2022/11/24 04:10:42;;;;;;;10.38;4.40;;;7.40;99.20;;;;;;5043417;28;20519;-76
2022/11/24 04:13:11;;;;;;;13.82;4.00;;;7.40;99.20;;;;;;5044888;28;20524;-77
2022/11/24 04:15:39;;;;;;;10.77;4.05;;;7.40;99.10;;;;;;5045123;28;20498;-77
2022/11/24 04:18:06;;;;;;;11.68;3.80;;;7.50;99.00;;;;;;5046606;28;20521;-76
2022/11/24 04:20:34;;;;;;;8.85;3.70;;;7.50;99.10;;;;;;5042642;28;20440;-77
2022/11/24 04:23:01;;;;;;;9.70;4.05;;;7.60;98.90;;;;;;5044942;28;20504;-76
2022/11/24 04:25:28;;;;;;;11.93;4.20;;;7.60;98.80;;;;;;5043572;28;20436;-77
2022/11/24 04:27:56;;;;;;;10.88;4.30;;;7.60;98.80;;;;;;5044530;28;20418;-76
2022/11/24 04:30:25;;;;;;;11.68;3.50;;;7.70;98.40;;;;;;5042686;28;20982;-77
2022/11/24 04:32:51;;;;;;;12.18;4.53;;;7.70;98.20;;;;;;5044047;28;20425;-77
2022/11/24 04:35:19;;;;;;;11.90;4.00;;;7.70;98.20;;;;;;5035166;28;20439;-77
2022/11/24 04:37:46;;;;;;;11.55;4.00;;;7.70;98.20;;;;;;5043537;28;20862;-77
2022/11/24 04:40:13;;;;;;;10.85;3.80;;;7.80;98.10;;;;;;5039262;28;20458;-76
2022/11/24 04:42:40;;;;;;;11.00;3.40;;;7.80;97.90;;;;;;5049000;28;20437;-77
2022/11/24 04:45:09;;;;;;;9.63;3.72;;;7.90;97.80;;;;;;5040108;28;20441;-76
2022/11/24 04:47:35;;;;;;;10.27;4.43;;;7.90;97.70;;;;;;5052930;28;20429;-76
2022/11/24 04:50:03;;;;;;;9.65;3.45;;;8.00;97.80;;;;;;5041187;28;20803;-77
2022/11/24 04:52:31;;;;;;;10.30;4.70;;;8.00;97.20;;;;;;5044167;28;20494;-77
2022/11/24 04:54:57;;;;;;;9.32;3.70;;;8.10;96.90;;;;;;5043046;28;20432;-77
2022/11/24 04:57:26;;;;;;;9.70;3.97;;;8.20;96.70;;;;;;5047628;28;20429;-76
2022/11/24 04:59:53;;;;;;;9.00;3.50;;;8.20;96.50;;;;;;5044504;28;20452;-77
2022/11/24 05:02:22;;;;;;;10.60;3.47;;;8.20;96.40;;;;;;5040390;28;20883;-77
2022/11/24 05:04:49;;;;;;;12.48;4.03;;;8.30;96.10;;;;;;5042518;28;20566;-77
2022/11/24 05:07:17;;;;;;;13.15;4.38;;;8.30;95.80;;;;;;5041367;28;20453;-76
2022/11/24 05:12:29;;;;;;;14.32;5.05;;;8.30;95.80;;;;;;5043435;28;20428;-77
2022/11/24 05:14:56;;;;;;;12.07;4.20;;;8.40;95.70;;;;;;5042937;28;20892;-76
2022/11/24 05:17:25;;;;;;;11.82;3.97;;;8.40;95.30;;;;;;5039658;28;20436;-76
2022/11/24 05:19:51;;;;;;;10.55;3.70;;;8.50;95.00;;;;;;5041996;28;21043;-76
2022/11/24 05:22:18;;;;;;;15.48;4.07;;;8.50;94.80;;;;;;5042918;28;20425;-76
2022/11/24 05:24:45;;;;;;;14.02;4.20;;;8.60;94.70;;;;;;5040384;28;20432;-77
2022/11/24 05:27:12;;;;;;;8.70;3.80;;;8.60;94.50;;;;;;5045286;28;20444;-77
2022/11/24 05:29:38;;;;;;;10.05;4.65;;;8.60;94.60;;;;;;5063572;28;20433;-76
2022/11/24 05:32:05;;;;;;;13.18;5.10;;;8.70;94.40;;;;;;5065575;28;20450;-81
2022/11/24 05:34:34;;;;;;;10.65;4.32;;;8.70;93.90;;;;;;5047024;28;20532;-76
2022/11/24 05:37:02;;;;;;;11.23;4.05;;;8.80;93.90;;;;;;5042299;28;20436;-76
2022/11/24 05:39:29;;;;;;;9.48;4.20;;;8.80;93.90;;;;;;5042108;28;20513;-76
2022/11/24 05:41:56;;;;;;;12.20;3.58;;;8.80;93.80;;;;;;5035890;28;20526;-76
2022/11/24 05:44:23;;;;;;;8.38;3.58;;;8.80;93.50;;;;;;5038930;28;20542;-77
2022/11/24 05:46:49;;;;;;;11.68;3.80;;;8.80;93.70;;;;;;5070153;28;20499;-77
2022/11/24 05:49:16;;;;;;;13.17;3.80;;;8.80;94.00;;;;;;5061407;28;20791;-76
2022/11/24 05:51:44;;;;;;;13.45;4.07;;;8.80;94.00;;;;;;5044877;28;20436;-76
2022/11/24 05:54:11;;;;;;;10.73;3.90;;;8.70;94.40;;;;;;5038585;28;20435;-76
2022/11/24 05:56:38;;;;;;;13.77;5.03;;;8.70;94.70;;;;;;5049010;28;20429;-80
2022/11/24 05:59:05;;;;;;;11.07;3.90;;;8.60;95.40;;;;;;5050481;28;20494;-79
2022/11/24 07:00:30;;;;;;;4.22;2.00;;;8.10;98.00;;;;;;5009939;28;20733;-71
2022/11/24 07:02:58;;;;;;;6.43;2.20;;;8.20;98.20;;;;;;4997518;28;20445;-72
2022/11/24 07:05:24;;;;;;;5.50;2.00;;;8.30;98.20;;;;;;5004352;28;20439;-78
2022/11/24 07:07:51;;;;;;;3.78;1.60;;;8.30;98.00;;;;;;5005804;28;20566;-78
2022/11/24 07:10:18;;;;;;;2.92;1.30;;;8.30;97.70;;;;;;5007870;28;20435;-78
2022/11/24 07:12:45;;;;;;;3.80;2.00;;;8.20;96.90;;;;;;5002656;28;20441;-78
2022/11/24 07:15:13;;;;;;;4.00;1.57;;;8.20;96.50;;;;;;4998048;28;20523;-77
2022/11/24 07:17:41;;;;;;;4.90;1.77;;;8.10;96.70;;;;;;5008006;28;20430;-76
2022/11/24 07:20:09;;;;;;;4.03;1.55;;;8.10;96.80;;;;;;5007342;28;20440;-79
2022/11/24 07:22:36;;;;;;;3.85;1.60;;;8.00;96.80;;;;;;4999613;28;20428;-78
2022/11/24 07:25:06;;;;;;;5.45;1.80;;;8.00;97.00;;;;;;5003848;28;20444;-77
2022/11/24 07:27:33;;;;;;;6.75;2.40;;;7.90;97.40;;;;;;5002746;28;20721;-78
2022/11/24 07:29:59;;;;;;;6.75;2.60;;;7.90;97.70;;;;;;4993513;28;20445;-77
2022/11/24 07:32:26;;;;;;;4.97;2.30;;;7.90;97.90;;;;;;5006673;28;20435;-77
2022/11/24 07:34:54;;;;;;;7.13;2.72;;;7.80;98.20;;;;;;5014588;28;20438;-80
2022/11/24 07:37:21;;;;;;;6.28;2.83;;;7.70;98.40;;;;;;5016807;28;20429;-78
2022/11/24 07:39:48;;;;;;;5.93;2.45;;;7.80;98.70;;;;;;5016331;28;20434;-77
2022/11/24 07:42:14;;;;;;;3.97;2.40;;;7.70;98.70;;;;;;5007403;28;20434;-77
2022/11/24 07:44:41;;;;;;;5.30;2.60;;;7.80;98.90;;;;;;5000700;28;20535;-76
2022/11/24 07:47:08;;;;;;;5.38;2.80;;;7.80;99.00;;;;;;4994196;28;20449;-77
2022/11/24 07:49:35;;;;;;;5.45;2.47;;;7.80;99.10;;;;;;5011349;28;20434;-76
2022/11/24 07:52:03;;;;;;;4.13;2.33;;;7.80;99.10;;;;;;4998047;28;20491;-77
2022/11/24 07:54:31;;;;;;;5.65;2.53;;;7.90;99.00;;;;;;5002240;28;20876;-77
2022/11/24 07:56:57;;;;;;;4.75;2.20;;;7.90;98.90;;;;;;4996511;28;20821;-79
2022/11/24 07:59:24;;;;;;;5.15;2.17;;;7.90;98.70;;;;;;4995106;28;20482;-77
2022/11/24 08:01:51;;;;;;;3.65;2.03;;;7.90;98.30;;;;;;5001609;28;21430;-77
2022/11/24 08:04:18;;;;;;;5.05;2.20;;;8.00;98.10;;;;;;5005146;28;20432;-77
2022/11/24 08:06:44;;;;;;;5.10;2.40;;;8.00;97.80;;;;;;5005930;28;20904;-78
2022/11/24 08:09:12;;;;;;;4.57;2.40;;;8.00;97.80;;;;;;5012610;28;20434;-78
2022/11/24 08:11:39;;;;;;;5.97;2.35;;;8.10;97.80;;;;;;5010586;28;20423;-78
2022/11/24 08:14:06;;;;;;;4.20;2.10;;;8.10;98.00;;;;;;5006707;28;20450;-78
2022/11/24 08:16:33;;;;;;;6.20;2.15;;;8.10;97.90;;;;;;5002123;28;20780;-78
2022/11/24 08:19:00;;;;;;;5.20;2.20;;;8.10;97.70;;;;;;5015913;28;20455;-77
2022/11/24 08:21:27;;;;;;;3.60;2.08;;;8.20;97.70;;;;;;5011555;28;20438;-77
2022/11/24 08:23:55;;;;;;;4.95;2.63;;;8.20;97.60;;;;;;4998347;28;20438;-77
2022/11/24 08:26:24;;;;;;;7.10;2.97;;;8.20;97.60;;;;;;5010700;28;20987;-77
2022/11/24 08:28:57;;;;;;;5.90;3.00;;;8.30;97.80;;;;;;5009852;28;20415;-78
2022/11/24 08:31:31;;;;;;;6.18;2.70;;;8.30;97.70;;;;;;4992140;28;20545;-78
2022/11/24 08:33:59;;;;;;;4.85;2.65;;;8.30;97.70;;;;;;4998193;28;20421;-77
2022/11/24 08:36:26;;;;;;;4.95;2.70;;;8.30;97.80;;;;;;5000980;28;20941;-77
2022/11/24 08:38:56;;;;;;;6.43;2.67;;;8.40;97.70;;;;;;5006220;28;20491;-77
2022/11/24 08:41:25;;;;;;;7.03;2.60;;;8.40;97.50;;;;;;4993260;28;20429;-79
2022/11/24 08:43:53;;;;;;;3.43;2.20;;;8.40;97.60;;;;;;5008687;28;20440;-78
2022/11/24 08:46:36;;;;;;;5.85;3.10;;;8.50;97.10;;;;;;5000750;28;21209;-79
2022/11/24 08:49:05;;;;;;;5.05;2.78;;;8.50;97.00;;;;;;4999494;28;20436;-78
2022/11/24 08:51:32;;;;;;;5.13;2.30;;;8.60;96.00;;;;;;5001843;28;20426;-78
2022/11/24 08:54:00;;;;;;;4.50;2.50;;;8.70;95.40;;;;;;5008956;28;20436;-77
2022/11/24 08:56:30;;;;;;;4.97;2.28;;;8.70;95.30;;;;;;4989868;28;20438;-78
2022/11/24 08:58:58;;;;;;;6.82;2.53;;;8.80;94.30;;;;;;5008475;28;20523;-78
2022/11/24 09:01:26;;;;;;;6.32;2.38;;;8.80;94.30;;;;;;5008580;28;20427;-64
2022/11/24 09:03:53;;;;;;;6.95;2.58;;;8.90;94.10;;;;;;5010269;28;20440;-66
2022/11/24 09:06:22;;;;;;;5.05;1.90;;;8.90;94.20;;;;;;4999709;28;20966;-76
2022/11/24 09:08:50;;;;;;;7.97;2.60;;;8.90;94.30;;;;;;4995585;28;20463;-77
2022/11/24 09:11:17;;;;;;;7.25;2.88;;;9.00;94.30;;;;;;5001102;28;20452;-75
2022/11/24 09:13:45;;;;;;;7.28;2.60;;;9.00;94.00;;;;;;4999052;28;20433;-76
2022/11/24 09:16:14;;;;;;;7.05;2.72;;;9.10;93.60;;;;;;5003472;28;20445;-76
2022/11/24 09:18:41;;;;;;;6.73;2.73;;;9.20;93.80;;;;;;5003631;28;20446;-76
2022/11/24 09:21:09;;;;;;;6.22;2.65;;;9.20;93.70;;;;;;4991220;28;20439;-77
2022/11/24 09:23:36;;;;;;;6.95;2.40;;;9.20;93.90;;;;;;4997629;28;20449;-78
2022/11/24 09:26:04;;;;;;;9.10;3.17;;;9.30;93.70;;;;;;5012643;28;20432;-77
2022/11/24 09:28:31;;;;;;;7.53;3.07;;;9.40;92.70;;;;;;5004958;28;20436;-77
2022/11/24 09:31:02;;;;;;;10.15;3.00;;;9.50;92.50;;;;;;5011509;28;20436;-77
2022/11/24 09:33:29;;;;;;;7.70;2.85;;;9.50;92.40;;;;;;5011874;28;20494;-77
2022/11/24 09:35:56;;;;;;;6.13;2.27;;;9.50;91.90;;;;;;5012072;28;20551;-78
2022/11/24 09:38:23;;;;;;;5.90;2.78;;;9.50;92.60;;;;;;4998752;28;20453;-77
2022/11/24 09:40:50;;;;;;;5.75;2.45;;;9.60;92.60;;;;;;5002909;28;20910;-76
2022/11/24 09:43:27;;;;;;;8.60;2.60;;;9.70;91.50;;;;;;5001963;28;20906;-77
2022/11/24 09:46:03;;;;;;;7.45;2.63;;;9.70;91.30;;;;;;5009270;28;20437;-77
2022/11/24 09:48:34;;;;;;;8.02;2.63;;;9.80;91.00;;;;;;4992573;28;20529;-76
2022/11/24 09:51:04;;;;;;;8.15;3.15;;;9.90;91.10;;;;;;4994352;28;20926;-76
2022/11/24 09:53:37;;;;;;;6.25;2.63;;;10.00;91.00;;;;;;4997574;28;20446;-76
2022/11/24 09:56:15;;;;;;;8.20;2.70;;;10.20;90.90;;;;;;4993645;28;20978;-76
2022/11/24 09:58:44;;;;;;;6.25;2.80;;;10.50;91.10;;;;;;5005932;28;20510;-75
2022/11/24 10:01:16;;;;;;;6.82;2.40;;;10.80;89.30;;;;;;4995607;28;20624;-76
2022/11/24 10:03:47;;;;;;;6.55;2.50;;;10.90;85.60;;;;;;4999703;28;20448;-77
2022/11/24 10:06:23;;;;;;;7.40;2.38;;;10.90;86.20;;;;;;5001568;28;20501;-78
2022/11/24 10:09:18;;;;;;;9.00;2.88;;;10.90;86.60;;;;;;5010101;28;20502;-78
2022/11/24 10:11:55;;;;;;;9.05;3.47;;;11.10;87.00;;;;;;5023914;28;20408;-77
2022/11/24 10:15:01;;;;;;;8.30;2.60;;;11.40;85.30;;;;;;5022731;28;20427;-77
2022/11/24 10:17:45;;;;;;;6.82;2.40;;;11.70;84.30;;;;;;4987177;28;21197;-77
2022/11/24 10:20:18;;;;;;;7.00;2.80;;;11.90;81.10;;;;;;4997871;28;20442;-74
2022/11/24 10:22:56;;;;;;;6.07;2.30;;;11.90;80.30;;;;;;5013489;28;20430;-76
2022/11/24 10:25:25;;;;;;;9.63;3.08;;;11.90;80.50;;;;;;5000370;28;20442;-75
2022/11/24 10:27:58;;;;;;;6.15;2.40;;;12.00;79.90;;;;;;5001209;28;20858;-74
2022/11/24 10:30:26;;;;;;;6.30;2.70;;;12.20;79.90;;;;;;4998629;28;20471;-74
2022/11/24 10:32:58;;;;;;;7.00;2.40;;;12.30;77.80;;;;;;5000156;28;20518;-74
2022/11/24 10:35:30;;;;;;;10.07;2.80;;;12.50;77.50;;;;;;5006275;28;20438;-74
2022/11/24 10:38:11;;;;;;;7.70;2.60;;;12.50;78.20;;;;;;5015583;28;20441;-74
2022/11/24 10:40:40;;;;;;;7.22;2.65;;;12.70;77.20;;;;;;5000039;28;20526;-76
2022/11/24 10:43:10;;;;;;;8.90;2.90;;;12.80;76.10;;;;;;5000980;28;20495;-75
2022/11/24 10:45:38;;;;;;;8.00;2.58;;;12.90;75.40;;;;;;5002950;28;20432;-75
2022/11/24 10:48:15;;;;;;;8.15;2.75;;;13.10;75.60;;;;;;4993959;28;20441;-75
2022/11/24 10:50:42;;;;;;;8.10;2.40;;;13.20;73.90;;;;;;4995602;28;20524;-75
2022/11/24 10:53:16;;;;;;;6.65;2.72;;;13.10;72.00;;;;;;4991531;28;20512;-75
2022/11/24 10:56:02;;;;;;;7.07;2.67;;;13.10;73.30;;;;;;4997562;28;20444;-78
2022/11/24 10:58:31;;;;;;;6.32;2.60;;;12.90;71.90;;;;;;5007173;28;20432;-74
2022/11/24 11:01:00;;;;;;;9.50;2.85;;;12.80;72.30;;;;;;5016604;22;20493;-68
2022/11/24 11:03:32;;;;;;;6.80;3.30;;;12.50;73.00;;;;;;5009471;28;20441;-67
2022/11/24 11:06:03;;;;;;;7.95;2.85;;;12.20;75.50;;;;;;5024736;28;20428;-67
2022/11/24 11:08:31;;;;;;;7.90;3.20;;;12.10;76.00;;;;;;5025602;28;20438;-69
2022/11/24 11:11:19;;;;;;;7.32;2.70;;;12.00;77.20;;;;;;5024255;28;20437;-69
2022/11/24 11:13:54;;;;;;;7.82;2.90;;;12.20;78.00;;;;;;5024529;28;20929;-70
2022/11/24 11:16:27;;;;;;;5.97;2.50;;;12.30;76.00;;;;;;5018265;28;20443;-66
2022/11/24 11:18:55;;;;;;;9.20;2.67;;;12.40;75.20;;;;;;5026363;28;20988;-67
2022/11/24 11:21:31;;;;;;;6.20;2.80;;;12.40;74.40;;;;;;5025615;28;20438;-66
2022/11/24 11:23:59;;;;;;;8.32;2.90;;;12.50;74.00;;;;;;5026901;28;20427;-67
2022/11/24 11:26:33;;;;;;;5.82;3.03;;;12.60;73.50;;;;;;5030946;28;20482;-66
2022/11/24 11:29:03;;;;;;;9.43;3.20;;;12.70;72.80;;;;;;5024895;28;20534;-68
2022/11/24 11:31:31;;;;;;;8.10;2.95;;;12.80;74.20;;;;;;5026544;28;20954;-68
2022/11/24 11:34:02;;;;;;;7.50;2.65;;;13.20;72.40;;;;;;5019715;28;20492;-69
2022/11/24 11:36:32;;;;;;;7.18;3.00;;;13.40;70.40;;;;;;5022725;28;21021;-68
2022/11/24 11:38:59;;;;;;;7.05;2.72;;;13.60;70.50;;;;;;5025777;28;20443;-67
2022/11/24 11:41:32;;;;;;;6.85;2.40;;;13.80;69.60;;;;;;5025367;28;20458;-68
2022/11/24 11:44:15;;;;;;;7.82;2.75;;;13.90;67.50;;;;;;5030935;28;20431;-68
2022/11/24 11:46:43;;;;;;;6.00;2.50;;;14.00;68.00;;;;;;5021160;28;20512;-68
2022/11/24 11:49:12;;;;;;;7.72;2.38;;;14.10;68.10;;;;;;5025288;28;20435;-69
2022/11/24 11:51:53;;;;;;;6.45;2.75;;;14.30;66.40;;;;;;5026305;28;20418;-69
2022/11/24 11:54:30;;;;;;;7.43;2.95;;;14.30;64.90;;;;;;5023796;28;20434;-69
2022/11/24 11:57:05;;;;;;;8.18;3.33;;;14.40;67.00;;;;;;5025459;28;20439;-68
2022/11/24 11:59:49;;;;;;;6.15;2.60;;;14.60;65.10;;;;;;5025544;28;20444;-67
2022/11/24 12:02:33;;;;;;;8.57;2.75;;;14.90;64.20;;;;;;5024494;28;20439;-67
2022/11/24 12:05:05;;;;;;;6.10;2.38;;;15.10;63.70;;;;;;5028905;28;20431;-66
2022/11/24 12:07:57;;;;;;;7.53;2.75;;;15.40;63.70;;;;;;5028825;28;20442;-69
2022/11/24 12:10:30;;;;;;;9.27;3.10;;;15.80;62.40;;;;;;5029577;28;20774;-66
2022/11/24 12:13:19;;;;;;;4.68;2.03;;;16.30;59.90;;;;;;5030842;28;20410;-66
2022/11/24 12:15:49;;;;;;;6.82;2.42;;;16.10;58.90;;;;;;5028032;28;20546;-66
2022/11/24 12:18:27;;;;;;;8.35;3.13;;;16.00;58.70;;;;;;5024997;28;20941;-67
2022/11/24 12:21:06;;;;;;;8.85;2.90;;;15.80;61.30;;;;;;5026588;28;20427;-67
2022/11/24 12:23:48;;;;;;;6.27;2.53;;;16.10;60.40;;;;;;5018506;28;20435;-67
2022/11/24 12:26:23;;;;;;;6.35;2.53;;;16.20;58.30;;;;;;5021169;28;20431;-68
2022/11/24 12:29:06;;;;;;;5.50;2.40;;;15.40;59.20;;;;;;5025669;28;20423;-69
2022/11/24 12:31:39;;;;;;;5.05;2.20;;;15.30;61.20;;;;;;5027173;28;20439;-69
2022/11/24 12:34:23;;;;;;;9.43;3.08;;;15.40;61.00;;;;;;5025520;28;20462;-66
2022/11/24 12:37:08;;;;;;;6.30;2.80;;;15.10;60.80;;;;;;5027735;28;21112;-68
2022/11/24 12:39:41;;;;;;;8.37;2.70;;;15.00;62.30;;;;;;5024004;28;20428;-68
2022/11/24 12:42:12;;;;;;;6.90;2.60;;;14.90;61.00;;;;;;5026515;28;20434;-65
2022/11/24 12:45:00;;;;;;;6.57;2.60;;;14.80;61.10;;;;;;5032400;28;20827;-65
2022/11/24 12:47:38;;;;;;;5.47;2.10;;;14.80;61.20;;;;;;5039680;28;20445;-66
2022/11/24 12:50:09;;;;;;;7.68;3.00;;;14.90;61.20;;;;;;5045636;28;20494;-64
2022/11/24 12:52:44;;;;;;;8.45;3.10;;;14.80;61.20;;;;;;5031184;28;20901;-67
2022/11/24 12:55:17;;;;;;;7.25;2.80;;;14.70;61.40;;;;;;5023886;28;20918;-63
2022/11/24 12:57:52;;;;;;;9.30;2.73;;;14.50;63.20;;;;;;5026448;28;20937;-65
2022/11/24 13:00:22;;;;;;;6.63;2.40;;;14.70;62.70;;;;;;5020047;28;20475;-64
2022/11/24 13:03:14;;;;;;;8.10;2.50;;;15.00;60.90;;;;;;5021455;28;20441;-67
2022/11/24 13:05:50;;;;;;;6.85;2.70;;;15.00;60.00;;;;;;5025020;28;20423;-65
2022/11/24 13:08:19;;;;;;;8.32;2.80;;;15.10;61.30;;;;;;5022649;28;20426;-67
2022/11/24 13:10:46;;;;;;;6.40;2.67;;;15.40;59.80;;;;;;5021129;28;20435;-67
2022/11/24 13:13:15;;;;;;;7.90;3.00;;;15.60;58.70;;;;;;5022407;28;20435;-67
2022/11/24 13:16:12;;;;;;;7.90;2.33;;;15.90;58.10;;;;;;5026561;28;20431;-66
2022/11/24 13:18:45;;;;;;;7.90;2.70;;;16.20;57.20;;;;;;5025131;28;20439;-66
2022/11/24 13:21:31;;;;;;;6.55;2.50;;;16.30;55.40;;;;;;5025128;28;20925;-68
2022/11/24 13:24:02;;;;;;;5.50;2.58;;;16.10;56.40;;;;;;5039725;28;20427;-67
2022/11/24 13:26:46;;;;;;;9.30;2.85;;;15.80;56.10;;;;;;5045793;28;20413;-67
2022/11/24 13:29:31;;;;;;;7.93;2.70;;;15.60;56.50;;;;;;5036314;28;20426;-65
2022/11/24 13:32:50;;;;;;;9.50;2.92;;;15.40;58.80;;;;;;5022736;28;20437;-66
2022/11/24 13:35:17;;;;;;;8.95;2.55;;;15.20;58.50;;;;;;5020348;28;20427;-67
2022/11/24 13:37:51;;;;;;;8.27;2.47;;;15.10;59.40;;;;;;5026617;28;20429;-67
2022/11/24 13:40:40;;;;;;;8.95;2.45;;;15.10;59.50;;;;;;5020061;28;20434;-67
2022/11/24 13:43:20;;;;;;;7.28;2.63;;;15.00;58.60;;;;;;5024046;28;20450;-68
2022/11/24 13:45:49;;;;;;;6.38;2.90;;;14.80;60.30;;;;;;5018534;28;21006;-68
2022/11/24 13:48:49;;;;;;;7.32;2.70;;;14.70;61.00;;;;;;5025371;28;20484;-68
2022/11/24 13:51:23;;;;;;;5.05;2.25;;;14.60;60.40;;;;;;5022074;28;20430;-67
2022/11/24 13:53:51;;;;;;;7.10;2.40;;;14.50;59.90;;;;;;5022117;28;20528;-66
2022/11/24 13:56:28;;;;;;;7.95;2.85;;;14.30;60.40;;;;;;5020336;28;20434;-66
2022/11/24 13:58:58;;;;;;;8.98;2.90;;;14.20;60.10;;;;;;5022226;28;20435;-66
2022/11/24 14:01:27;;;;;;;6.97;2.55;;;14.10;60.80;;;;;;5024918;28;20430;-67
2022/11/24 14:04:16;;;;;;;10.02;3.10;;;13.90;61.20;;;;;;5021840;28;20905;-67
2022/11/24 14:06:46;;;;;;;9.75;2.58;;;13.80;61.80;;;;;;5010457;28;20441;-66
2022/11/24 14:09:23;;;;;;;8.30;2.80;;;13.60;61.80;;;;;;5016490;28;20431;-67